FLIGHT DETAILS
Pilot: ACV287 Shiljo Aircraft: PMDG - 747-400F KALITTA AIR N782CK Distance: 3929NM
Departure OBBI Arrival ZSPD Duration 7.68
Validation Validated Type Charter Tail Number N782CK
ZFW 287048 Block Fuel/Initial FOB 91,789/0 Flight Fuel 89,132
Passengers 0 Cargo 0 Alternate
Departure Time Cruise Speed Flight Level
Flight Type IFR Aircraft Type Weight Unit Kg
Date 2019-08-05 Pilot Comments Network IVAO
Crashed No Validator Comments Flight Rating 100

 ROUTE
ROUTE
REMARKS
 FLIGHT FAILURES
Crashed OK Beacon off & Engine Running Fail KIAS Above 250 below 10000 FT Fail
Lights OFF below 10000 FT OK Lights ON above 10000 FT Fail Stall OK
Overspeed OK Flight paused Fail Refueling OK
Slew detected Fail Taxi & Taxi lights off OK Take off & lights off OK
Landing & lights off OK Landed in not planned airport OK Taxi Speed Fail
Wrong altimeter in Take off OK Wrong altimeter in Landing Fail
 LANDING ANALYSIS
Landing wind 128º/14 kt Landing heading 72
Landing VS: -136.1 ft/min Landing IAS: 154.25 kt
Landing Force G 1 G Landing Bank -0.2
Landing Pitch 4.7 Landing Flaps 33
Navigation Lights OFF Landing Lights ON
Beacon Lights OFF Strobe Lights OFF
 FLIGHT MAP
 ALTITUDE CHART
 FLIGHT FINANCIAL REPORT
 MAIN EVENTS
DATE EVENTIASALTITUDE
2019-08-04 23:26:24 SIM ACARS version 1.4.1418
2019-08-04 23:26:24 BOARDING418
2019-08-04 23:26:24 FLAPS EXTENSION 50 % 418
2019-08-04 23:26:24 STARTING ENGINE 1 418
2019-08-04 23:26:24 STARTING ENGINE 2 418
2019-08-04 23:26:24 STARTING ENGINE 3 418
2019-08-04 23:26:24 STARTING ENGINE 4 418
2019-08-04 23:26:24 BEACON LIGHT OFF & ENGINE ON418
2019-08-04 23:26:58 PUSHBACK418
2019-08-04 23:28:17 TAXI TO THE RWY 918
2019-08-04 23:29:57 SIM PAUSED1818
2019-08-04 23:29:58 SIM UNPAUSED1818
2019-08-04 23:33:10 ROLLING FOR TAKE OFF3918
2019-08-04 23:39:36 TAKE OFF17820
2019-08-04 23:39:40 GEAR UP19143
2019-08-04 23:40:03 FLAPS EXTENSION 0 % 223826
2019-08-04 23:40:03 FLAPS EXTENSION 33 % 223829
2019-08-04 23:40:10 FLAPS EXTENSION 17 % 2171074
2019-08-04 23:40:58 FLAPS EXTENSION 0 % 2303016
2019-08-04 23:53:28 GEAR DOWN36625057
2019-08-04 23:53:47 GEAR UP36924913
2019-08-04 23:55:06 CRUISE35226065
2019-08-04 23:55:36 CLIMBING36026195
2019-08-04 23:58:16 CRUISE34428906
2019-08-05 00:01:26 CLIMBING34429228
2019-08-05 00:04:06 CRUISE32930864
2019-08-05 00:08:16 CLIMBING32131331
2019-08-05 00:08:46 CRUISE31931522
2019-08-05 00:09:46 CLIMBING31732029
2019-08-05 00:10:16 CRUISE31532174
2019-08-05 00:12:36 CLIMBING31632412
2019-08-05 00:13:06 CRUISE31232448
2019-08-05 01:05:26 CLIMBING32332793
2019-08-05 01:06:06 CRUISE32333096
2019-08-05 01:34:56 DESCEND30432768
2019-08-05 01:35:36 CRUISE31032592
2019-08-05 01:45:36 CLIMBING33133064
2019-08-05 01:46:26 CRUISE33033514
2019-08-05 02:25:56 CLIMBING33733685
2019-08-05 02:26:46 CRUISE33734102
2019-08-05 02:33:16 DESCEND33033753
2019-08-05 02:34:16 CRUISE32833578
2019-08-05 02:34:46 DESCEND32633514
2019-08-05 02:35:16 CRUISE32633452
2019-08-05 02:40:56 CLIMBING34333703
2019-08-05 02:41:56 CRUISE33734109
2019-08-05 02:46:16 DESCEND32733681
2019-08-05 02:46:56 CRUISE32933633
2019-08-05 03:02:26 DESCEND32132989
2019-08-05 03:02:56 CRUISE31532870
2019-08-05 03:04:26 DESCEND31532746
2019-08-05 03:04:56 CRUISE31432664
2019-08-05 03:35:36 DESCEND31632804
2019-08-05 03:36:06 CRUISE31532762
2019-08-05 07:10:26 DESCEND31732774
2019-08-05 07:18:04 LIGHTS ON ABOVE 10000 ft26711385
2019-08-05 07:23:09 The connection to Flight Sim has been lost2434491
2019-08-05 07:29:43 Reconection to the sim2434491
2019-08-05 07:29:43 SLEW MODE ACTIVATED2434491
2019-08-05 07:29:43 GEAR DOWN03283
2019-08-05 07:29:45 The connection to Flight Sim has been lost03283
2019-08-05 07:29:48 Reconection to the sim03283
2019-08-05 07:30:06 CRUISE03283
2019-08-05 07:34:02 IAS ABOVE 250 KNOTS BELOW 10000 ft2612943
2019-08-05 07:34:07 FLAPS EXTENSION 83 % 2822776
2019-08-05 07:34:07 FLAPS EXTENSION 100 % 2832771
2019-08-05 07:34:07 FLAPS EXTENSION 83 % 2832767
2019-08-05 07:34:07 FLAPS EXTENSION 83 % 2842760
2019-08-05 07:34:07 FLAPS EXTENSION 100 % 2852750
2019-08-05 07:34:08 FLAPS EXTENSION 83 % 2862746
2019-08-05 07:34:08 FLAPS EXTENSION 83 % 2862742
2019-08-05 07:34:08 FLAPS EXTENSION 83 % 2872740
2019-08-05 07:34:08 FLAPS EXTENSION 100 % 2872736
2019-08-05 07:34:08 FLAPS EXTENSION 83 % 2882732
2019-08-05 07:34:08 FLAPS EXTENSION 83 % 2892726
2019-08-05 07:34:08 FLAPS EXTENSION 100 % 2902720
2019-08-05 07:34:09 FLAPS EXTENSION 83 % 2912714
2019-08-05 07:34:09 FLAPS EXTENSION 100 % 2922708
2019-08-05 07:34:09 FLAPS EXTENSION 83 % 2932700
2019-08-05 07:34:09 FLAPS EXTENSION 100 % 2942695
2019-08-05 07:34:09 FLAPS EXTENSION 100 % 2952693
2019-08-05 07:34:10 FLAPS EXTENSION 83 % 2952691
2019-08-05 07:34:10 FLAPS EXTENSION 100 % 2962685
2019-08-05 07:34:10 FLAPS EXTENSION 100 % 2972683
2019-08-05 07:34:10 FLAPS EXTENSION 100 % 2972681
2019-08-05 07:34:10 FLAPS EXTENSION 83 % 2982674
2019-08-05 07:34:10 FLAPS EXTENSION 100 % 2992672
2019-08-05 07:34:11 FLAPS EXTENSION 100 % 2992669
2019-08-05 07:34:11 FLAPS EXTENSION 83 % 3002663
2019-08-05 07:34:11 FLAPS EXTENSION 100 % 3012660
2019-08-05 07:34:11 FLAPS EXTENSION 100 % 3012657
2019-08-05 07:34:11 FLAPS EXTENSION 100 % 3012656
2019-08-05 07:34:11 FLAPS EXTENSION 83 % 3022653
2019-08-05 07:34:11 FLAPS EXTENSION 100 % 3022650
2019-08-05 07:34:12 FLAPS EXTENSION 100 % 3032644
2019-08-05 07:34:12 FLAPS EXTENSION 83 % 3032642
2019-08-05 07:34:12 FLAPS EXTENSION 100 % 3032638
2019-08-05 07:34:12 FLAPS EXTENSION 83 % 3032634
2019-08-05 07:34:13 FLAPS EXTENSION 100 % 3042628
2019-08-05 07:34:13 FLAPS EXTENSION 83 % 3042626
2019-08-05 07:34:14 FLAPS EXTENSION 83 % 3042619
2019-08-05 07:34:14 FLAPS EXTENSION 83 % 3042618
2019-08-05 07:34:14 FLAPS EXTENSION 100 % 3042617
2019-08-05 07:34:14 FLAPS EXTENSION 100 % 3042616
2019-08-05 07:34:14 FLAPS EXTENSION 83 % 3042615
2019-08-05 07:34:14 FLAPS EXTENSION 83 % 3042614
2019-08-05 07:34:14 FLAPS EXTENSION 83 % 3042612
2019-08-05 07:34:15 FLAPS EXTENSION 83 % 3032610
2019-08-05 07:34:15 FLAPS EXTENSION 100 % 3032609
2019-08-05 07:34:15 FLAPS EXTENSION 83 % 3032608
2019-08-05 07:34:15 FLAPS EXTENSION 100 % 3032607
2019-08-05 07:34:15 FLAPS EXTENSION 100 % 3022606
2019-08-05 07:34:16 FLAPS EXTENSION 83 % 3022606
2019-08-05 07:34:16 FLAPS EXTENSION 100 % 3022605
2019-08-05 07:34:16 DESCEND3022605
2019-08-05 07:34:16 FLAPS EXTENSION 83 % 3022605
2019-08-05 07:34:16 FLAPS EXTENSION 100 % 3022604
2019-08-05 07:34:16 FLAPS EXTENSION 83 % 3012604
2019-08-05 07:34:16 FLAPS EXTENSION 100 % 3012603
2019-08-05 07:34:17 FLAPS EXTENSION 100 % 3012602
2019-08-05 07:34:17 FLAPS EXTENSION 100 % 3002601
2019-08-05 07:34:17 FLAPS EXTENSION 100 % 3002601
2019-08-05 07:34:17 FLAPS EXTENSION 83 % 2992600
2019-08-05 07:34:17 FLAPS EXTENSION 100 % 2992600
2019-08-05 07:34:18 FLAPS EXTENSION 100 % 2992599
2019-08-05 07:34:18 FLAPS EXTENSION 100 % 2982598
2019-08-05 07:34:18 FLAPS EXTENSION 100 % 2982597
2019-08-05 07:34:18 FLAPS EXTENSION 83 % 2972596
2019-08-05 07:34:19 FLAPS EXTENSION 100 % 2972594
2019-08-05 07:34:19 FLAPS EXTENSION 100 % 2962593
2019-08-05 07:34:19 FLAPS EXTENSION 83 % 2962592
2019-08-05 07:34:19 FLAPS EXTENSION 100 % 2962591
2019-08-05 07:34:19 FLAPS EXTENSION 83 % 2952589
2019-08-05 07:34:20 FLAPS EXTENSION 100 % 2952588
2019-08-05 07:34:20 FLAPS EXTENSION 83 % 2942585
2019-08-05 07:34:21 FLAPS EXTENSION 100 % 2902580
2019-08-05 07:34:21 FLAPS EXTENSION 83 % 2892579
2019-08-05 07:34:21 FLAPS EXTENSION 83 % 2872578
2019-08-05 07:34:21 FLAPS EXTENSION 83 % 2852575
2019-08-05 07:34:21 FLAPS EXTENSION 83 % 2832573
2019-08-05 07:34:22 FLAPS EXTENSION 100 % 2782567
2019-08-05 07:34:22 FLAPS EXTENSION 83 % 2762566
2019-08-05 07:34:22 FLAPS EXTENSION 83 % 2762566
2019-08-05 07:34:22 FLAPS EXTENSION 83 % 2752562
2019-08-05 07:34:22 FLAPS EXTENSION 100 % 2752562
2019-08-05 07:34:23 FLAPS EXTENSION 100 % 2692551
2019-08-05 07:34:23 FLAPS EXTENSION 83 % 2692549
2019-08-05 07:34:23 FLAPS EXTENSION 100 % 2682548
2019-08-05 07:34:23 FLAPS EXTENSION 83 % 2682545
2019-08-05 07:34:23 FLAPS EXTENSION 100 % 2672538
2019-08-05 07:34:24 FLAPS EXTENSION 83 % 2672533
2019-08-05 07:34:24 FLAPS EXTENSION 100 % 2672528
2019-08-05 07:34:24 FLAPS EXTENSION 100 % 2672526
2019-08-05 07:34:24 FLAPS EXTENSION 100 % 2672523
2019-08-05 07:34:24 FLAPS EXTENSION 83 % 2672520
2019-08-05 07:34:24 FLAPS EXTENSION 100 % 2672514
2019-08-05 07:34:25 FLAPS EXTENSION 100 % 2662509
2019-08-05 07:34:25 FLAPS EXTENSION 100 % 2662500
2019-08-05 07:34:25 FLAPS EXTENSION 100 % 2662494
2019-08-05 07:34:25 FLAPS EXTENSION 83 % 2662488
2019-08-05 07:34:25 FLAPS EXTENSION 100 % 2672485
2019-08-05 07:34:26 FLAPS EXTENSION 100 % 2662476
2019-08-05 07:34:26 FLAPS EXTENSION 83 % 2662473
2019-08-05 07:34:26 FLAPS EXTENSION 100 % 2662466
2019-08-05 07:34:26 FLAPS EXTENSION 83 % 2662461
2019-08-05 07:34:27 FLAPS EXTENSION 100 % 2662452
2019-08-05 07:34:27 FLAPS EXTENSION 83 % 2662445
2019-08-05 07:34:27 FLAPS EXTENSION 83 % 2662442
2019-08-05 07:34:27 FLAPS EXTENSION 100 % 2662435
2019-08-05 07:34:27 FLAPS EXTENSION 83 % 2662432
2019-08-05 07:34:27 FLAPS EXTENSION 83 % 2662429
2019-08-05 07:34:28 FLAPS EXTENSION 83 % 2672424
2019-08-05 07:34:28 FLAPS EXTENSION 100 % 2672420
2019-08-05 07:34:28 FLAPS EXTENSION 100 % 2672416
2019-08-05 07:34:28 FLAPS EXTENSION 83 % 2672414
2019-08-05 07:34:28 FLAPS EXTENSION 83 % 2672411
2019-08-05 07:34:28 FLAPS EXTENSION 83 % 2672401
2019-08-05 07:34:29 FLAPS EXTENSION 83 % 2672392
2019-08-05 07:34:29 FLAPS EXTENSION 100 % 2672389
2019-08-05 07:34:29 FLAPS EXTENSION 83 % 2672385
2019-08-05 07:34:29 FLAPS EXTENSION 83 % 2672377
2019-08-05 07:34:29 FLAPS EXTENSION 100 % 2672375
2019-08-05 07:34:30 FLAPS EXTENSION 83 % 2672369
2019-08-05 07:34:30 FLAPS EXTENSION 100 % 2672363
2019-08-05 07:34:30 FLAPS EXTENSION 83 % 2672355
2019-08-05 07:34:30 FLAPS EXTENSION 100 % 2672349
2019-08-05 07:34:30 FLAPS EXTENSION 100 % 2662348
2019-08-05 07:34:31 FLAPS EXTENSION 83 % 2662344
2019-08-05 07:34:31 FLAPS EXTENSION 100 % 2662341
2019-08-05 07:34:31 FLAPS EXTENSION 100 % 2662337
2019-08-05 07:34:31 FLAPS EXTENSION 100 % 2662334
2019-08-05 07:34:31 FLAPS EXTENSION 100 % 2662326
2019-08-05 07:34:32 FLAPS EXTENSION 100 % 2662321
2019-08-05 07:34:32 FLAPS EXTENSION 100 % 2662313
2019-08-05 07:34:32 FLAPS EXTENSION 100 % 2662309
2019-08-05 07:34:32 FLAPS EXTENSION 83 % 2662304
2019-08-05 07:34:33 FLAPS EXTENSION 100 % 2662300
2019-08-05 07:34:33 FLAPS EXTENSION 100 % 2662298
2019-08-05 07:34:33 FLAPS EXTENSION 83 % 2662293
2019-08-05 07:34:33 FLAPS EXTENSION 100 % 2662291
2019-08-05 07:34:33 FLAPS EXTENSION 83 % 2662285
2019-08-05 07:34:34 FLAPS EXTENSION 100 % 2662278
2019-08-05 07:34:34 FLAPS EXTENSION 83 % 2662274
2019-08-05 07:34:34 FLAPS EXTENSION 83 % 2662265
2019-08-05 07:34:35 FLAPS EXTENSION 83 % 2662262
2019-08-05 07:34:35 FLAPS EXTENSION 83 % 2662256
2019-08-05 07:34:35 FLAPS EXTENSION 83 % 2662252
2019-08-05 07:34:35 FLAPS EXTENSION 83 % 2662247
2019-08-05 07:34:36 FLAPS EXTENSION 83 % 2662240
2019-08-05 07:34:36 FLAPS EXTENSION 100 % 2662239
2019-08-05 07:34:36 FLAPS EXTENSION 83 % 2662237
2019-08-05 07:34:36 FLAPS EXTENSION 83 % 2662233
2019-08-05 07:34:36 FLAPS EXTENSION 83 % 2662232
2019-08-05 07:34:36 FLAPS EXTENSION 100 % 2662229
2019-08-05 07:34:37 FLAPS EXTENSION 83 % 2662226
2019-08-05 07:34:37 FLAPS EXTENSION 100 % 2662222
2019-08-05 07:34:37 FLAPS EXTENSION 83 % 2652217
2019-08-05 07:34:37 FLAPS EXTENSION 83 % 2652215
2019-08-05 07:34:37 FLAPS EXTENSION 100 % 2652214
2019-08-05 07:34:38 FLAPS EXTENSION 83 % 2652208
2019-08-05 07:34:38 FLAPS EXTENSION 100 % 2652207
2019-08-05 07:34:38 FLAPS EXTENSION 100 % 2652198
2019-08-05 07:34:39 FLAPS EXTENSION 100 % 2652194
2019-08-05 07:34:39 FLAPS EXTENSION 100 % 2652189
2019-08-05 07:34:39 FLAPS EXTENSION 100 % 2652186
2019-08-05 07:34:39 FLAPS EXTENSION 83 % 2652183
2019-08-05 07:34:40 FLAPS EXTENSION 100 % 2642179
2019-08-05 07:34:40 FLAPS EXTENSION 100 % 2642176
2019-08-05 07:34:40 FLAPS EXTENSION 83 % 2642175
2019-08-05 07:34:40 FLAPS EXTENSION 100 % 2642172
2019-08-05 07:34:40 FLAPS EXTENSION 100 % 2642170
2019-08-05 07:34:40 FLAPS EXTENSION 83 % 2642168
2019-08-05 07:34:41 FLAPS EXTENSION 100 % 2642162
2019-08-05 07:34:41 FLAPS EXTENSION 83 % 2642160
2019-08-05 07:34:42 FLAPS EXTENSION 83 % 2632148
2019-08-05 07:34:42 FLAPS EXTENSION 83 % 2632145
2019-08-05 07:34:42 FLAPS EXTENSION 83 % 2632142
2019-08-05 07:34:42 FLAPS EXTENSION 83 % 2632140
2019-08-05 07:34:43 FLAPS EXTENSION 83 % 2632139
2019-08-05 07:34:43 FLAPS EXTENSION 83 % 2632137
2019-08-05 07:34:43 FLAPS EXTENSION 100 % 2632137
2019-08-05 07:34:43 FLAPS EXTENSION 83 % 2632135
2019-08-05 07:34:43 FLAPS EXTENSION 83 % 2622132
2019-08-05 07:34:43 FLAPS EXTENSION 100 % 2622130
2019-08-05 07:34:44 FLAPS EXTENSION 83 % 2622128
2019-08-05 07:34:44 FLAPS EXTENSION 100 % 2622126
2019-08-05 07:34:44 FLAPS EXTENSION 83 % 2612122
2019-08-05 07:34:44 FLAPS EXTENSION 100 % 2612121
2019-08-05 07:34:44 FLAPS EXTENSION 100 % 2612120
2019-08-05 07:34:45 FLAPS EXTENSION 83 % 2612117
2019-08-05 07:34:45 FLAPS EXTENSION 100 % 2612117
2019-08-05 07:34:45 FLAPS EXTENSION 83 % 2602112
2019-08-05 07:34:45 FLAPS EXTENSION 100 % 2602111
2019-08-05 07:34:46 FLAPS EXTENSION 100 % 2602110
2019-08-05 07:34:46 FLAPS EXTENSION 83 % 2602107
2019-08-05 07:34:46 FLAPS EXTENSION 100 % 2602106
2019-08-05 07:34:46 FLAPS EXTENSION 100 % 2592105
2019-08-05 07:34:46 FLAPS EXTENSION 83 % 2592104
2019-08-05 07:34:47 FLAPS EXTENSION 100 % 2592102
2019-08-05 07:34:47 FLAPS EXTENSION 100 % 2592101
2019-08-05 07:34:47 FLAPS EXTENSION 100 % 2592100
2019-08-05 07:34:47 FLAPS EXTENSION 83 % 2592099
2019-08-05 07:34:47 FLAPS EXTENSION 100 % 2582098
2019-08-05 07:34:47 FLAPS EXTENSION 100 % 2582097
2019-08-05 07:34:47 FLAPS EXTENSION 83 % 2582096
2019-08-05 07:34:48 FLAPS EXTENSION 100 % 2562094
2019-08-05 07:34:48 FLAPS EXTENSION 83 % 2562093
2019-08-05 07:34:48 FLAPS EXTENSION 100 % 2552091
2019-08-05 07:34:48 FLAPS EXTENSION 83 % 2552091
2019-08-05 07:34:48 FLAPS EXTENSION 83 % 2552091
2019-08-05 07:34:49 FLAPS EXTENSION 83 % 2552091
2019-08-05 07:34:49 FLAPS EXTENSION 83 % 2542090
2019-08-05 07:34:49 FLAPS EXTENSION 83 % 2542088
2019-08-05 07:34:50 FLAPS EXTENSION 83 % 2542088
2019-08-05 07:34:50 FLAPS EXTENSION 100 % 2542088
2019-08-05 07:34:50 FLAPS EXTENSION 100 % 2532087
2019-08-05 07:34:50 FLAPS EXTENSION 83 % 2532087
2019-08-05 07:34:50 FLAPS EXTENSION 100 % 2532087
2019-08-05 07:34:50 FLAPS EXTENSION 100 % 2522087
2019-08-05 07:34:50 FLAPS EXTENSION 83 % 2512087
2019-08-05 07:34:51 FLAPS EXTENSION 100 % 2502087
2019-08-05 07:34:51 FLAPS EXTENSION 100 % 2492087
2019-08-05 07:34:51 FLAPS EXTENSION 83 % 2492087
2019-08-05 07:34:51 FLAPS EXTENSION 100 % 2482087
2019-08-05 07:34:51 FLAPS EXTENSION 83 % 2482088
2019-08-05 07:34:52 FLAPS EXTENSION 100 % 2472088
2019-08-05 07:34:52 FLAPS EXTENSION 83 % 2472088
2019-08-05 07:34:52 FLAPS EXTENSION 83 % 2472089
2019-08-05 07:34:52 FLAPS EXTENSION 83 % 2462089
2019-08-05 07:34:52 FLAPS EXTENSION 83 % 2462090
2019-08-05 07:34:53 FLAPS EXTENSION 83 % 2452091
2019-08-05 07:34:53 FLAPS EXTENSION 83 % 2442091
2019-08-05 07:34:53 FLAPS EXTENSION 83 % 2432092
2019-08-05 07:34:53 FLAPS EXTENSION 100 % 2432092
2019-08-05 07:34:54 FLAPS EXTENSION 83 % 2422093
2019-08-05 07:34:54 FLAPS EXTENSION 83 % 2412094
2019-08-05 07:34:54 FLAPS EXTENSION 100 % 2412094
2019-08-05 07:34:54 FLAPS EXTENSION 83 % 2412095
2019-08-05 07:34:54 FLAPS EXTENSION 100 % 2402096
2019-08-05 07:34:55 FLAPS EXTENSION 83 % 2382097
2019-08-05 07:34:55 FLAPS EXTENSION 100 % 2382098
2019-08-05 07:34:55 FLAPS EXTENSION 100 % 2382098
2019-08-05 07:34:55 FLAPS EXTENSION 100 % 2372100
2019-08-05 07:34:55 FLAPS EXTENSION 100 % 2372100
2019-08-05 07:34:56 FLAPS EXTENSION 100 % 2362102
2019-08-05 07:34:56 FLAPS EXTENSION 100 % 2352102
2019-08-05 07:34:56 FLAPS EXTENSION 100 % 2342106
2019-08-05 07:34:57 FLAPS EXTENSION 100 % 2332107
2019-08-05 07:34:57 FLAPS EXTENSION 100 % 2322108
2019-08-05 07:34:57 FLAPS EXTENSION 83 % 2322109
2019-08-05 07:34:57 FLAPS EXTENSION 100 % 2322110
2019-08-05 07:34:57 FLAPS EXTENSION 83 % 2302113
2019-08-05 07:34:58 FLAPS EXTENSION 100 % 2292115
2019-08-05 07:34:58 FLAPS EXTENSION 83 % 2282116
2019-08-05 07:34:58 FLAPS EXTENSION 100 % 2272117
2019-08-05 07:34:58 FLAPS EXTENSION 83 % 2272118
2019-08-05 07:34:59 FLAPS EXTENSION 100 % 2252119
2019-08-05 07:34:59 FLAPS EXTENSION 83 % 2252119
2019-08-05 07:34:59 FLAPS EXTENSION 100 % 2232118
2019-08-05 07:34:59 FLAPS EXTENSION 100 % 2232118
2019-08-05 07:34:59 FLAPS EXTENSION 83 % 2222117
2019-08-05 07:35:00 FLAPS EXTENSION 83 % 2212117
2019-08-05 07:35:00 FLAPS EXTENSION 83 % 2212116
2019-08-05 07:35:00 FLAPS EXTENSION 100 % 2212114
2019-08-05 07:35:00 FLAPS EXTENSION 83 % 2202113
2019-08-05 07:35:00 FLAPS EXTENSION 83 % 2202111
2019-08-05 07:35:00 FLAPS EXTENSION 100 % 2202110
2019-08-05 07:35:01 FLAPS EXTENSION 83 % 2192107
2019-08-05 07:35:01 FLAPS EXTENSION 83 % 2192106
2019-08-05 07:35:01 FLAPS EXTENSION 83 % 2182105
2019-08-05 07:35:01 FLAPS EXTENSION 100 % 2182103
2019-08-05 07:35:01 FLAPS EXTENSION 83 % 2182099
2019-08-05 07:35:01 FLAPS EXTENSION 83 % 2172098
2019-08-05 07:35:01 FLAPS EXTENSION 100 % 2172096
2019-08-05 07:35:02 FLAPS EXTENSION 83 % 2162089
2019-08-05 07:35:02 FLAPS EXTENSION 100 % 2162088
2019-08-05 07:35:02 FLAPS EXTENSION 100 % 2162085
2019-08-05 07:35:02 FLAPS EXTENSION 100 % 2152077
2019-08-05 07:35:02 FLAPS EXTENSION 100 % 2152074
2019-08-05 07:35:03 FLAPS EXTENSION 100 % 2142066
2019-08-05 07:35:03 FLAPS EXTENSION 100 % 2132061
2019-08-05 07:35:03 FLAPS EXTENSION 83 % 2132052
2019-08-05 07:35:03 FLAPS EXTENSION 100 % 2122049
2019-08-05 07:35:04 FLAPS EXTENSION 83 % 2122040
2019-08-05 07:35:04 FLAPS EXTENSION 100 % 2122033
2019-08-05 07:35:04 FLAPS EXTENSION 100 % 2122027
2019-08-05 07:35:04 FLAPS EXTENSION 83 % 2122023
2019-08-05 07:35:05 FLAPS EXTENSION 100 % 2122015
2019-08-05 07:35:05 FLAPS EXTENSION 83 % 2122008
2019-08-05 07:35:05 FLAPS EXTENSION 100 % 2121998
2019-08-05 07:35:05 FLAPS EXTENSION 83 % 2121990
2019-08-05 07:35:05 FLAPS EXTENSION 83 % 2111986
2019-08-05 07:35:06 FLAPS EXTENSION 83 % 2111970
2019-08-05 07:35:06 FLAPS EXTENSION 83 % 2111966
2019-08-05 07:35:06 FLAPS EXTENSION 83 % 2111953
2019-08-05 07:35:07 FLAPS EXTENSION 83 % 2111945
2019-08-05 07:35:07 FLAPS EXTENSION 83 % 2111931
2019-08-05 07:35:07 FLAPS EXTENSION 83 % 2111918
2019-08-05 07:35:07 FLAPS EXTENSION 100 % 2111914
2019-08-05 07:35:07 FLAPS EXTENSION 83 % 2111908
2019-08-05 07:35:08 FLAPS EXTENSION 83 % 2111894
2019-08-05 07:35:08 FLAPS EXTENSION 100 % 2111890
2019-08-05 07:35:08 FLAPS EXTENSION 83 % 2111880
2019-08-05 07:35:08 FLAPS EXTENSION 100 % 2111870
2019-08-05 07:35:09 FLAPS EXTENSION 83 % 2111862
2019-08-05 07:35:09 FLAPS EXTENSION 100 % 2111858
2019-08-05 07:35:09 FLAPS EXTENSION 83 % 2111852
2019-08-05 07:35:09 FLAPS EXTENSION 100 % 2111846
2019-08-05 07:35:09 FLAPS EXTENSION 83 % 2111832
2019-08-05 07:35:09 FLAPS EXTENSION 100 % 2111828
2019-08-05 07:35:09 FLAPS EXTENSION 100 % 2111823
2019-08-05 07:35:10 FLAPS EXTENSION 100 % 2111819
2019-08-05 07:35:10 FLAPS EXTENSION 100 % 2111804
2019-08-05 07:35:10 FLAPS EXTENSION 100 % 2101795
2019-08-05 07:35:10 FLAPS EXTENSION 100 % 2101780
2019-08-05 07:35:11 FLAPS EXTENSION 100 % 2101769
2019-08-05 07:35:11 FLAPS EXTENSION 83 % 2101760
2019-08-05 07:35:11 FLAPS EXTENSION 100 % 2101755
2019-08-05 07:35:11 FLAPS EXTENSION 100 % 2101741
2019-08-05 07:35:11 FLAPS EXTENSION 83 % 2101736
2019-08-05 07:35:12 FLAPS EXTENSION 100 % 2101726
2019-08-05 07:35:12 FLAPS EXTENSION 83 % 2101717
2019-08-05 07:35:12 FLAPS EXTENSION 100 % 2091703
2019-08-05 07:35:12 FLAPS EXTENSION 83 % 2091694
2019-08-05 07:35:13 FLAPS EXTENSION 83 % 2091654
2019-08-05 07:35:14 FLAPS EXTENSION 83 % 2081647
2019-08-05 07:35:14 FLAPS EXTENSION 83 % 2081632
2019-08-05 07:35:14 FLAPS EXTENSION 83 % 2081621
2019-08-05 07:35:14 FLAPS EXTENSION 100 % 2081617
2019-08-05 07:35:14 FLAPS EXTENSION 83 % 2081612
2019-08-05 07:35:15 FLAPS EXTENSION 83 % 2081605
2019-08-05 07:35:15 FLAPS EXTENSION 100 % 2071598
2019-08-05 07:35:15 FLAPS EXTENSION 83 % 2071589
2019-08-05 07:35:15 FLAPS EXTENSION 100 % 2071582
2019-08-05 07:35:16 FLAPS EXTENSION 83 % 2061571
2019-08-05 07:35:16 FLAPS EXTENSION 100 % 2061565
2019-08-05 07:35:16 FLAPS EXTENSION 100 % 2061560
2019-08-05 07:35:16 FLAPS EXTENSION 83 % 2061554
2019-08-05 07:35:16 FLAPS EXTENSION 100 % 2061550
2019-08-05 07:35:16 FLAPS EXTENSION 100 % 2051547
2019-08-05 07:35:17 FLAPS EXTENSION 100 % 2051544
2019-08-05 07:35:17 FLAPS EXTENSION 100 % 2051534
2019-08-05 07:35:17 FLAPS EXTENSION 100 % 2051530
2019-08-05 07:35:17 FLAPS EXTENSION 83 % 2041517
2019-08-05 07:35:17 FLAPS EXTENSION 100 % 2041515
2019-08-05 07:35:18 FLAPS EXTENSION 100 % 2041510
2019-08-05 07:35:18 FLAPS EXTENSION 83 % 2041503
2019-08-05 07:35:18 FLAPS EXTENSION 100 % 2031500
2019-08-05 07:35:18 FLAPS EXTENSION 83 % 2031487
2019-08-05 07:35:18 FLAPS EXTENSION 100 % 2031484
2019-08-05 07:35:19 FLAPS EXTENSION 83 % 2021474
2019-08-05 07:35:19 FLAPS EXTENSION 100 % 2021465
2019-08-05 07:35:19 FLAPS EXTENSION 83 % 2021457
2019-08-05 07:35:20 FLAPS EXTENSION 83 % 2001429
2019-08-05 07:35:21 FLAPS EXTENSION 83 % 2001423
2019-08-05 07:35:21 FLAPS EXTENSION 83 % 1991413
2019-08-05 07:35:21 FLAPS EXTENSION 83 % 1991407
2019-08-05 07:35:21 FLAPS EXTENSION 100 % 1991401
2019-08-05 07:35:22 FLAPS EXTENSION 83 % 1991394
2019-08-05 07:35:22 FLAPS EXTENSION 83 % 1991391
2019-08-05 07:35:22 FLAPS EXTENSION 100 % 1991385
2019-08-05 07:35:22 FLAPS EXTENSION 83 % 1981383
2019-08-05 07:35:22 FLAPS EXTENSION 83 % 1981376
2019-08-05 07:35:22 FLAPS EXTENSION 100 % 1981373
2019-08-05 07:35:23 FLAPS EXTENSION 83 % 1971367
2019-08-05 07:35:23 FLAPS EXTENSION 100 % 1971358
2019-08-05 07:35:23 FLAPS EXTENSION 100 % 1961343
2019-08-05 07:35:23 FLAPS EXTENSION 100 % 1961340
2019-08-05 07:35:24 FLAPS EXTENSION 83 % 1961334
2019-08-05 07:35:24 FLAPS EXTENSION 100 % 1951330
2019-08-05 07:35:24 FLAPS EXTENSION 100 % 1951324
2019-08-05 07:35:24 FLAPS EXTENSION 100 % 1951316
2019-08-05 07:35:25 FLAPS EXTENSION 100 % 1941307
2019-08-05 07:35:25 FLAPS EXTENSION 83 % 1941304
2019-08-05 07:35:25 FLAPS EXTENSION 100 % 1941300
2019-08-05 07:35:25 FLAPS EXTENSION 100 % 1941293
2019-08-05 07:35:25 FLAPS EXTENSION 83 % 1941288
2019-08-05 07:35:25 FLAPS EXTENSION 100 % 1941285
2019-08-05 07:35:26 FLAPS EXTENSION 83 % 1941283
2019-08-05 07:35:26 FLAPS EXTENSION 100 % 1931279
2019-08-05 07:35:26 FLAPS EXTENSION 83 % 1931276
2019-08-05 07:35:26 FLAPS EXTENSION 100 % 1931266
2019-08-05 07:35:26 FLAPS EXTENSION 83 % 1931260
2019-08-05 07:35:26 FLAPS EXTENSION 83 % 1931257
2019-08-05 07:35:27 FLAPS EXTENSION 100 % 1921251
2019-08-05 07:35:27 FLAPS EXTENSION 83 % 1921248
2019-08-05 07:35:27 FLAPS EXTENSION 83 % 1921245
2019-08-05 07:35:27 FLAPS EXTENSION 83 % 1911238
2019-08-05 07:35:27 FLAPS EXTENSION 83 % 1911231
2019-08-05 07:35:28 FLAPS EXTENSION 83 % 1911225
2019-08-05 07:35:28 FLAPS EXTENSION 83 % 1911215
2019-08-05 07:35:28 FLAPS EXTENSION 83 % 1911213
2019-08-05 07:35:28 FLAPS EXTENSION 100 % 1901204
2019-08-05 07:35:28 FLAPS EXTENSION 83 % 1901200
2019-08-05 07:35:29 FLAPS EXTENSION 83 % 1901193
2019-08-05 07:35:29 FLAPS EXTENSION 100 % 1901187
2019-08-05 07:35:29 FLAPS EXTENSION 83 % 1891181
2019-08-05 07:35:29 FLAPS EXTENSION 100 % 1891173
2019-08-05 07:35:30 FLAPS EXTENSION 83 % 1881163
2019-08-05 07:35:30 FLAPS EXTENSION 100 % 1881158
2019-08-05 07:35:30 FLAPS EXTENSION 100 % 1881153
2019-08-05 07:35:30 FLAPS EXTENSION 100 % 1881140
2019-08-05 07:35:31 FLAPS EXTENSION 100 % 1881136
2019-08-05 07:35:31 FLAPS EXTENSION 83 % 1871129
2019-08-05 07:35:31 FLAPS EXTENSION 100 % 1871126
2019-08-05 07:35:31 FLAPS EXTENSION 100 % 1871119
2019-08-05 07:35:31 FLAPS EXTENSION 100 % 1871109
2019-08-05 07:35:32 FLAPS EXTENSION 83 % 1871099
2019-08-05 07:35:32 FLAPS EXTENSION 83 % 1871095
2019-08-05 07:35:32 FLAPS EXTENSION 100 % 1871091
2019-08-05 07:35:32 FLAPS EXTENSION 100 % 1861081
2019-08-05 07:35:32 FLAPS EXTENSION 83 % 1861077
2019-08-05 07:35:32 FLAPS EXTENSION 100 % 1861074
2019-08-05 07:35:33 FLAPS EXTENSION 83 % 1851063
2019-08-05 07:35:33 FLAPS EXTENSION 100 % 1851049
2019-08-05 07:35:33 FLAPS EXTENSION 83 % 1841044
2019-08-05 07:35:33 FLAPS EXTENSION 83 % 1841041
2019-08-05 07:35:34 FLAPS EXTENSION 100 % 1841033
2019-08-05 07:35:34 FLAPS EXTENSION 83 % 1841029
2019-08-05 07:35:34 FLAPS EXTENSION 83 % 1841026
2019-08-05 07:35:34 FLAPS EXTENSION 83 % 1841021
2019-08-05 07:35:34 FLAPS EXTENSION 83 % 1841012
2019-08-05 07:35:35 FLAPS EXTENSION 83 % 1841000
2019-08-05 07:35:35 FLAPS EXTENSION 83 % 184992
2019-08-05 07:35:35 FLAPS EXTENSION 83 % 184988
2019-08-05 07:35:35 FLAPS EXTENSION 100 % 183977
2019-08-05 07:35:36 FLAPS EXTENSION 83 % 183970
2019-08-05 07:35:36 FLAPS EXTENSION 83 % 183965
2019-08-05 07:35:36 FLAPS EXTENSION 83 % 183962
2019-08-05 07:35:36 FLAPS EXTENSION 100 % 183957
2019-08-05 07:35:36 FLAPS EXTENSION 83 % 182953
2019-08-05 07:35:36 FLAPS EXTENSION 83 % 182946
2019-08-05 07:35:36 FLAPS EXTENSION 100 % 182941
2019-08-05 07:35:37 FLAPS EXTENSION 83 % 183928
2019-08-05 07:35:37 FLAPS EXTENSION 100 % 183921
2019-08-05 07:35:37 FLAPS EXTENSION 100 % 183902
2019-08-05 07:35:38 FLAPS EXTENSION 100 % 183898
2019-08-05 07:35:38 FLAPS EXTENSION 83 % 183889
2019-08-05 07:35:38 FLAPS EXTENSION 100 % 182885
2019-08-05 07:35:38 FLAPS EXTENSION 100 % 182881
2019-08-05 07:35:38 FLAPS EXTENSION 100 % 182865
2019-08-05 07:35:39 FLAPS EXTENSION 100 % 182857
2019-08-05 07:35:39 FLAPS EXTENSION 83 % 182848
2019-08-05 07:35:39 FLAPS EXTENSION 100 % 182839
2019-08-05 07:35:39 FLAPS EXTENSION 100 % 182835
2019-08-05 07:35:39 FLAPS EXTENSION 83 % 182826
2019-08-05 07:35:40 FLAPS EXTENSION 100 % 182818
2019-08-05 07:35:40 FLAPS EXTENSION 100 % 182815
2019-08-05 07:35:40 FLAPS EXTENSION 83 % 182810
2019-08-05 07:35:40 FLAPS EXTENSION 100 % 181801
2019-08-05 07:35:40 FLAPS EXTENSION 100 % 181793
2019-08-05 07:35:40 FLAPS EXTENSION 83 % 181789
2019-08-05 07:35:41 FLAPS EXTENSION 100 % 181777
2019-08-05 07:35:41 FLAPS EXTENSION 83 % 181772
2019-08-05 07:35:41 FLAPS EXTENSION 100 % 181757
2019-08-05 07:35:41 FLAPS EXTENSION 83 % 181752
2019-08-05 07:35:42 FLAPS EXTENSION 83 % 180744
2019-08-05 07:35:42 FLAPS EXTENSION 83 % 180733
2019-08-05 07:35:42 FLAPS EXTENSION 83 % 180720
2019-08-05 07:35:42 FLAPS EXTENSION 100 % 180717
2019-08-05 07:35:43 FLAPS EXTENSION 83 % 179710
2019-08-05 07:35:43 FLAPS EXTENSION 83 % 179703
2019-08-05 07:35:43 FLAPS EXTENSION 100 % 179700
2019-08-05 07:35:43 FLAPS EXTENSION 83 % 179693
2019-08-05 07:35:43 FLAPS EXTENSION 100 % 179685
2019-08-05 07:35:44 FLAPS EXTENSION 83 % 179677
2019-08-05 07:35:44 FLAPS EXTENSION 100 % 179667
2019-08-05 07:35:44 FLAPS EXTENSION 100 % 179665
2019-08-05 07:35:44 FLAPS EXTENSION 83 % 179658
2019-08-05 07:35:44 FLAPS EXTENSION 100 % 179654
2019-08-05 07:35:44 FLAPS EXTENSION 100 % 179650
2019-08-05 07:35:45 FLAPS EXTENSION 100 % 179646
2019-08-05 07:35:45 FLAPS EXTENSION 100 % 179636
2019-08-05 07:35:45 FLAPS EXTENSION 100 % 179634
2019-08-05 07:35:45 FLAPS EXTENSION 100 % 179622
2019-08-05 07:35:46 FLAPS EXTENSION 100 % 179616
2019-08-05 07:35:46 FLAPS EXTENSION 83 % 179608
2019-08-05 07:35:46 FLAPS EXTENSION 100 % 179605
2019-08-05 07:35:46 FLAPS EXTENSION 100 % 179596
2019-08-05 07:35:46 FLAPS EXTENSION 83 % 179594
2019-08-05 07:35:46 FLAPS EXTENSION 100 % 179590
2019-08-05 07:35:47 FLAPS EXTENSION 83 % 179581
2019-08-05 07:35:47 FLAPS EXTENSION 100 % 179575
2019-08-05 07:35:47 FLAPS EXTENSION 83 % 180565
2019-08-05 07:35:48 FLAPS EXTENSION 100 % 180560
2019-08-05 07:35:48 FLAPS EXTENSION 83 % 180555
2019-08-05 07:35:48 FLAPS EXTENSION 100 % 180551
2019-08-05 07:35:48 FLAPS EXTENSION 100 % 180546
2019-08-05 07:35:48 FLAPS EXTENSION 83 % 180543
2019-08-05 07:35:48 FLAPS EXTENSION 100 % 180538
2019-08-05 07:35:49 FLAPS EXTENSION 100 % 180535
2019-08-05 07:35:49 FLAPS EXTENSION 100 % 180526
2019-08-05 07:35:49 FLAPS EXTENSION 100 % 181524
2019-08-05 07:35:49 FLAPS EXTENSION 83 % 181515
2019-08-05 07:35:50 FLAPS EXTENSION 100 % 181510
2019-08-05 07:35:50 FLAPS EXTENSION 83 % 181501
2019-08-05 07:35:50 FLAPS EXTENSION 100 % 181499
2019-08-05 07:35:50 FLAPS EXTENSION 83 % 181491
2019-08-05 07:35:51 FLAPS EXTENSION 100 % 182485
2019-08-05 07:35:51 FLAPS EXTENSION 83 % 182478
2019-08-05 07:35:51 FLAPS EXTENSION 83 % 182475
2019-08-05 07:35:51 FLAPS EXTENSION 100 % 182469
2019-08-05 07:35:51 FLAPS EXTENSION 83 % 182467
2019-08-05 07:35:51 FLAPS EXTENSION 83 % 183465
2019-08-05 07:35:52 FLAPS EXTENSION 83 % 183457
2019-08-05 07:35:52 FLAPS EXTENSION 100 % 183457
2019-08-05 07:35:52 FLAPS EXTENSION 83 % 183454
2019-08-05 07:35:52 FLAPS EXTENSION 83 % 183452
2019-08-05 07:35:52 FLAPS EXTENSION 83 % 184442
2019-08-05 07:35:53 FLAPS EXTENSION 83 % 184432
2019-08-05 07:35:53 FLAPS EXTENSION 100 % 184432
2019-08-05 07:35:53 FLAPS EXTENSION 83 % 184429
2019-08-05 07:35:53 FLAPS EXTENSION 83 % 184423
2019-08-05 07:35:53 FLAPS EXTENSION 100 % 184421
2019-08-05 07:35:54 FLAPS EXTENSION 83 % 184416
2019-08-05 07:35:54 FLAPS EXTENSION 100 % 184410
2019-08-05 07:35:54 FLAPS EXTENSION 100 % 185410
2019-08-05 07:35:54 FLAPS EXTENSION 83 % 185407
2019-08-05 07:35:54 FLAPS EXTENSION 100 % 185401
2019-08-05 07:35:55 FLAPS EXTENSION 83 % 185394
2019-08-05 07:35:55 FLAPS EXTENSION 100 % 185391
2019-08-05 07:35:55 FLAPS EXTENSION 100 % 185390
2019-08-05 07:35:55 FLAPS EXTENSION 100 % 185386
2019-08-05 07:35:55 FLAPS EXTENSION 100 % 185382
2019-08-05 07:35:56 FLAPS EXTENSION 100 % 184377
2019-08-05 07:35:56 FLAPS EXTENSION 100 % 184371
2019-08-05 07:35:56 FLAPS EXTENSION 100 % 184367
2019-08-05 07:35:56 FLAPS EXTENSION 83 % 184364
2019-08-05 07:35:56 FLAPS EXTENSION 100 % 184362
2019-08-05 07:35:57 FLAPS EXTENSION 100 % 184358
2019-08-05 07:35:57 FLAPS EXTENSION 83 % 183354
2019-08-05 07:35:57 FLAPS EXTENSION 100 % 183349
2019-08-05 07:35:57 FLAPS EXTENSION 83 % 183345
2019-08-05 07:35:58 FLAPS EXTENSION 100 % 183343
2019-08-05 07:35:58 FLAPS EXTENSION 83 % 182341
2019-08-05 07:35:58 FLAPS EXTENSION 100 % 182339
2019-08-05 07:35:58 FLAPS EXTENSION 83 % 182337
2019-08-05 07:35:58 FLAPS EXTENSION 100 % 182332
2019-08-05 07:35:58 FLAPS EXTENSION 83 % 182330
2019-08-05 07:35:58 FLAPS EXTENSION 83 % 181329
2019-08-05 07:35:59 FLAPS EXTENSION 83 % 181326
2019-08-05 07:35:59 FLAPS EXTENSION 100 % 181324
2019-08-05 07:35:59 FLAPS EXTENSION 100 % 181322
2019-08-05 07:35:59 FLAPS EXTENSION 83 % 181320
2019-08-05 07:35:59 FLAPS EXTENSION 83 % 180317
2019-08-05 07:35:59 FLAPS EXTENSION 83 % 180314
2019-08-05 07:36:00 FLAPS EXTENSION 83 % 179310
2019-08-05 07:36:00 FLAPS EXTENSION 100 % 179308
2019-08-05 07:36:00 FLAPS EXTENSION 83 % 179304
2019-08-05 07:36:00 FLAPS EXTENSION 100 % 178301
2019-08-05 07:36:01 FLAPS EXTENSION 83 % 178297
2019-08-05 07:36:01 FLAPS EXTENSION 100 % 178296
2019-08-05 07:36:01 FLAPS EXTENSION 83 % 177292
2019-08-05 07:36:01 FLAPS EXTENSION 100 % 177289
2019-08-05 07:36:02 FLAPS EXTENSION 100 % 176281
2019-08-05 07:36:02 FLAPS EXTENSION 100 % 175279
2019-08-05 07:36:02 FLAPS EXTENSION 100 % 175276
2019-08-05 07:36:03 FLAPS EXTENSION 100 % 175272
2019-08-05 07:36:03 FLAPS EXTENSION 83 % 174270
2019-08-05 07:36:03 FLAPS EXTENSION 100 % 174268
2019-08-05 07:36:03 FLAPS EXTENSION 100 % 174265
2019-08-05 07:36:03 FLAPS EXTENSION 83 % 174264
2019-08-05 07:36:03 FLAPS EXTENSION 100 % 174262
2019-08-05 07:36:04 FLAPS EXTENSION 100 % 173258
2019-08-05 07:36:04 FLAPS EXTENSION 83 % 173257
2019-08-05 07:36:04 FLAPS EXTENSION 100 % 173255
2019-08-05 07:36:04 FLAPS EXTENSION 83 % 173251
2019-08-05 07:36:05 FLAPS EXTENSION 100 % 172247
2019-08-05 07:36:05 FLAPS EXTENSION 83 % 172244
2019-08-05 07:36:05 FLAPS EXTENSION 100 % 172240
2019-08-05 07:36:05 FLAPS EXTENSION 83 % 172239
2019-08-05 07:36:06 FLAPS EXTENSION 83 % 171236
2019-08-05 07:36:06 FLAPS EXTENSION 83 % 171235
2019-08-05 07:36:06 FLAPS EXTENSION 100 % 171233
2019-08-05 07:36:06 FLAPS EXTENSION 83 % 171231
2019-08-05 07:36:06 FLAPS EXTENSION 83 % 171229
2019-08-05 07:36:06 FLAPS EXTENSION 100 % 171224
2019-08-05 07:36:06 FLAPS EXTENSION 83 % 170223
2019-08-05 07:36:07 FLAPS EXTENSION 83 % 170221
2019-08-05 07:36:07 FLAPS EXTENSION 83 % 170218
2019-08-05 07:36:07 FLAPS EXTENSION 100 % 170217
2019-08-05 07:36:34 LANDING15423
2019-08-05 07:37:43 FLAPS EXTENSION 33 % 3422
2019-08-05 07:37:59 FLAPS EXTENSION 17 % 3522
2019-08-05 07:38:45 TAXI TO THE GATE2022
2019-08-05 07:38:46 FLAPS EXTENSION 0 % 2022
2019-08-05 07:39:36 TAXI SPEED ABOVE 25 KTS3322
 ACARS DATA
DATE IASGSALTITUDEFUEL CONSUMED OATFLIGHT STATUS
2019-08-04 23:27:2412184136BOARDING
2019-08-04 23:28:2414151815036TAXI TO THE RWY
2019-08-04 23:29:24321825636TAXI TO THE RWY
2019-08-04 23:30:241191837234TAXI TO THE RWY
2019-08-04 23:31:2430301851334TAXI TO THE RWY
2019-08-04 23:32:24001857836TAXI TO THE RWY
2019-08-04 23:33:241131231892034TAXI TO THE RWY
2019-08-04 23:34:240018120014TAXI TO THE RWY
2019-08-04 23:35:24313118139214TAXI TO THE RWY
2019-08-04 23:36:24353418150314TAXI TO THE RWY
2019-08-04 23:37:24181718157836TAXI TO THE RWY
2019-08-04 23:38:24323018170432TAXI TO THE RWY
2019-08-04 23:39:2412013118203632TAXI TO THE RWY
2019-08-04 23:40:242162421531288036CLIMBING
2019-08-04 23:41:242242334088343132CLIMBING
2019-08-04 23:42:242512776203398821CLIMBING
2019-08-04 23:43:242522868207444817CLIMBING
2019-08-04 23:44:2425329610205489913CLIMBING
2019-08-04 23:45:242633171221753709CLIMBING
2019-08-04 23:46:243003681375758437CLIMBING
2019-08-04 23:47:243364231527362892CLIMBING
2019-08-04 23:48:243414421690466460CLIMBING
2019-08-04 23:49:24364479185817056-3CLIMBING
2019-08-04 23:50:24364481211417433-8CLIMBING
2019-08-04 23:51:24365493227887780-11CLIMBING
2019-08-04 23:52:24365503241718108-13CLIMBING
2019-08-04 23:53:24364518250508417-15CLIMBING
2019-08-04 23:54:24352493259448723-17CLIMBING
2019-08-04 23:55:24356529261429018-17CRUISE
2019-08-04 23:56:24360523270919311-20CLIMBING
2019-08-04 23:57:24352509282809583-23CLIMBING
2019-08-04 23:58:24344502289079809-23CRUISE
2019-08-04 23:59:243445042891410031-23CRUISE
2019-08-05 00:00:243445032891710246-23CRUISE
2019-08-05 00:01:243445032918910474-24CRUISE
2019-08-05 00:02:243395022992910728-26CLIMBING
2019-08-05 00:03:243344973070610970-28CLIMBING
2019-08-05 00:04:243325043088111204-28CRUISE
2019-08-05 00:05:243145093098211433-25CRUISE
2019-08-05 00:06:243175153102711657-25CRUISE
2019-08-05 00:07:243175203106011875-24CRUISE
2019-08-05 00:08:243185163150012090-26CLIMBING
2019-08-05 00:09:243195193156912306-26CRUISE
2019-08-05 00:10:243135103217512519-28CRUISE
2019-08-05 00:11:243135103231912730-28CRUISE
2019-08-05 00:12:243135133234612941-28CRUISE
2019-08-05 00:13:243125123245313145-28CRUISE
2019-08-05 00:14:243135103247813343-28CRUISE
2019-08-05 00:15:243075123250013551-28CRUISE
2019-08-05 00:16:243105143251013754-28CRUISE
2019-08-05 00:17:243135163250313959-28CRUISE
2019-08-05 00:18:243125173250514160-28CRUISE
2019-08-05 00:19:243115203245414363-27CRUISE
2019-08-05 00:20:243155223245414558-28CRUISE
2019-08-05 00:21:243135203246314752-28CRUISE
2019-08-05 00:22:243125093246614949-28CRUISE
2019-08-05 00:23:243125123244415152-28CRUISE
2019-08-05 00:24:243125133243415353-28CRUISE
2019-08-05 00:25:243135133248215555-29CRUISE
2019-08-05 00:26:243135133249015756-28CRUISE
2019-08-05 00:27:243125143247915952-28CRUISE
2019-08-05 00:28:243125143247616149-28CRUISE
2019-08-05 00:29:243125143248816349-28CRUISE
2019-08-05 00:30:243135133249216547-29CRUISE
2019-08-05 00:31:243125143247916749-28CRUISE
2019-08-05 00:32:243125143244816949-28CRUISE
2019-08-05 00:33:243125153245117155-28CRUISE
2019-08-05 00:34:243125133244217352-28CRUISE
2019-08-05 00:35:243125153243817554-28CRUISE
2019-08-05 00:36:243125133243717747-28CRUISE
2019-08-05 00:37:243135063254817936-29CRUISE
2019-08-05 00:38:243145073258518140-30CRUISE
2019-08-05 00:39:243155053261618337-30CRUISE
2019-08-05 00:40:243055053248518529-28CRUISE
2019-08-05 00:41:243085093246518730-27CRUISE
2019-08-05 00:42:243105123248318934-27CRUISE
2019-08-05 00:43:243125143245719141-27CRUISE
2019-08-05 00:44:243125143246119339-27CRUISE
2019-08-05 00:45:243125153246219541-27CRUISE
2019-08-05 00:46:243165103260519737-30CRUISE
2019-08-05 00:47:243155093262119934-30CRUISE
2019-08-05 00:48:243145103261820136-29CRUISE
2019-08-05 00:49:243145103259420335-29CRUISE
2019-08-05 00:50:243145123256520534-29CRUISE
2019-08-05 00:51:243125133255620733-28CRUISE
2019-08-05 00:52:243135113255220927-29CRUISE
2019-08-05 00:53:243145103255921125-29CRUISE
2019-08-05 00:54:243145113256321324-29CRUISE
2019-08-05 00:55:243145103257221520-29CRUISE
2019-08-05 00:56:243145093259621718-30CRUISE
2019-08-05 00:57:243145093260721918-30CRUISE
2019-08-05 00:58:243155093261622117-30CRUISE
2019-08-05 00:59:243145033262722298-31CRUISE
2019-08-05 01:00:243155033264322500-31CRUISE
2019-08-05 01:01:243155013266222693-31CRUISE
2019-08-05 01:02:243155003268022891-32CRUISE
2019-08-05 01:03:243164983269923089-32CRUISE
2019-08-05 01:04:243164973271423286-32CRUISE
2019-08-05 01:05:243244953275723482-33CRUISE
2019-08-05 01:06:243214873310423681-34CRUISE
2019-08-05 01:07:243224873311523884-34CRUISE
2019-08-05 01:08:243224843312424074-34CRUISE
2019-08-05 01:09:243224793312624263-34CRUISE
2019-08-05 01:10:243224733312724444-34CRUISE
2019-08-05 01:11:243224703312724641-34CRUISE
2019-08-05 01:12:243224713312724838-34CRUISE
2019-08-05 01:13:243224723312725044-34CRUISE
2019-08-05 01:14:243224733312725246-34CRUISE
2019-08-05 01:15:243114833310025467-34CRUISE
2019-08-05 01:16:243204943309225693-34CRUISE
2019-08-05 01:17:243214943307825891-34CRUISE
2019-08-05 01:18:243214943308026087-34CRUISE
2019-08-05 01:19:243214943308126286-34CRUISE
2019-08-05 01:20:243214943308126487-34CRUISE
2019-08-05 01:21:243214943308426690-34CRUISE
2019-08-05 01:22:243214943308326897-34CRUISE
2019-08-05 01:23:243214943309127094-34CRUISE
2019-08-05 01:24:243214943308327293-34CRUISE
2019-08-05 01:25:243174833291127451-34CRUISE
2019-08-05 01:26:243184843289327657-34CRUISE
2019-08-05 01:27:243184843288327852-34CRUISE
2019-08-05 01:28:243184843287728047-34CRUISE
2019-08-05 01:29:243184843286728245-34CRUISE
2019-08-05 01:30:243184843286428443-34CRUISE
2019-08-05 01:31:243184843287028640-34CRUISE
2019-08-05 01:32:243174883285428848-33CRUISE
2019-08-05 01:33:243164893280829047-33CRUISE
2019-08-05 01:34:243164913279529246-32CRUISE
2019-08-05 01:35:243084993260129449-29DESCEND
2019-08-05 01:36:243125053258429657-29CRUISE
2019-08-05 01:37:243135063257329858-29CRUISE
2019-08-05 01:38:243135073256330056-29CRUISE
2019-08-05 01:39:243135073256230248-29CRUISE
2019-08-05 01:40:243135073256230446-29CRUISE
2019-08-05 01:41:243135063256330640-29CRUISE
2019-08-05 01:42:243135063256630836-29CRUISE
2019-08-05 01:43:243145073257131032-29CRUISE
2019-08-05 01:44:243145063257731226-29CRUISE
2019-08-05 01:45:243344973287331418-33CRUISE
2019-08-05 01:46:243294953351231639-34CLIMBING
2019-08-05 01:47:243284933353431833-34CRUISE
2019-08-05 01:48:243284933354432029-34CRUISE
2019-08-05 01:49:243284933353932226-34CRUISE
2019-08-05 01:50:243294883359332416-35CRUISE
2019-08-05 01:51:243294883360532615-35CRUISE
2019-08-05 01:52:243294873361632814-35CRUISE
2019-08-05 01:53:243294873361933010-35CRUISE
2019-08-05 01:54:243294803362133211-35CRUISE
2019-08-05 01:55:243294803362033407-35CRUISE
2019-08-05 01:56:243294793362033607-35CRUISE
2019-08-05 01:57:243294793362033804-35CRUISE
2019-08-05 01:58:243294793362034002-35CRUISE
2019-08-05 01:59:243294783362034195-35CRUISE
2019-08-05 02:00:243294783362034390-35CRUISE
2019-08-05 02:01:243294783361934588-35CRUISE
2019-08-05 02:02:243294773362034782-35CRUISE
2019-08-05 02:03:243294773361934980-35CRUISE
2019-08-05 02:04:243294773362035173-35CRUISE
2019-08-05 02:05:243294773362035368-35CRUISE
2019-08-05 02:06:243244823334035562-34CRUISE
2019-08-05 02:07:243244813332335761-34CRUISE
2019-08-05 02:08:243244813331335952-34CRUISE
2019-08-05 02:09:243244813330636150-34CRUISE
2019-08-05 02:10:243244813330636343-34CRUISE
2019-08-05 02:11:243244813330636539-34CRUISE
2019-08-05 02:12:243244813330936735-34CRUISE
2019-08-05 02:13:243244813330736929-34CRUISE
2019-08-05 02:14:243244813330537126-34CRUISE
2019-08-05 02:15:243244813330537321-34CRUISE
2019-08-05 02:16:243244813330437516-34CRUISE
2019-08-05 02:17:243244813330537709-34CRUISE
2019-08-05 02:18:243244813330437906-34CRUISE
2019-08-05 02:19:243244813330538100-34CRUISE
2019-08-05 02:20:243244823330438291-34CRUISE
2019-08-05 02:21:243244823330438485-34CRUISE
2019-08-05 02:22:243244823330538679-34CRUISE
2019-08-05 02:23:243244823330438870-34CRUISE
2019-08-05 02:24:243244823330439062-34CRUISE
2019-08-05 02:25:243244823330439257-34CRUISE
2019-08-05 02:26:243374773407039483-36CLIMBING
2019-08-05 02:27:243364763411439684-36CRUISE
2019-08-05 02:28:243364763412339880-36CRUISE
2019-08-05 02:29:243364763412940076-36CRUISE
2019-08-05 02:30:243364763413040274-36CRUISE
2019-08-05 02:31:243364763413040472-36CRUISE
2019-08-05 02:32:243244773409340671-35CRUISE
2019-08-05 02:33:243284923372740886-34DESCEND
2019-08-05 02:34:243274983356441088-33CRUISE
2019-08-05 02:35:243255033343041287-32CRUISE
2019-08-05 02:36:243245133334141487-31CRUISE
2019-08-05 02:37:243235153328941682-31CRUISE
2019-08-05 02:38:243235143326741871-31CRUISE
2019-08-05 02:39:243245123329442057-31CRUISE
2019-08-05 02:40:243265103334442247-32CRUISE
2019-08-05 02:41:243344763407242405-36CLIMBING
2019-08-05 02:42:243364773411442607-36CRUISE
2019-08-05 02:43:243354773412342802-36CRUISE
2019-08-05 02:44:243364783412943001-36CRUISE
2019-08-05 02:45:243364783413043196-36CRUISE
2019-08-05 02:46:243264773367043366-35DESCEND
2019-08-05 02:47:243284803362843562-35CRUISE
2019-08-05 02:48:243284803361843750-35CRUISE
2019-08-05 02:49:243284803361343945-35CRUISE
2019-08-05 02:50:243284803361144140-35CRUISE
2019-08-05 02:51:243284803361144334-35CRUISE
2019-08-05 02:52:243284803361144527-35CRUISE
2019-08-05 02:53:243284803361144720-35CRUISE
2019-08-05 02:54:243284803361144909-35CRUISE
2019-08-05 02:55:243284803361145102-35CRUISE
2019-08-05 02:56:243184863348245298-33CRUISE
2019-08-05 02:57:243234963335045509-33CRUISE
2019-08-05 02:58:243234993330045701-32CRUISE
2019-08-05 02:59:243225013324945896-32CRUISE
2019-08-05 03:00:243215043319846085-32CRUISE
2019-08-05 03:01:243215063314846279-31CRUISE
2019-08-05 03:02:243215093303146472-32CRUISE
2019-08-05 03:03:243175093284646654-31CRUISE
2019-08-05 03:04:243155163275046854-30CRUISE
2019-08-05 03:05:243135253260247056-28CRUISE
2019-08-05 03:06:243135233254647246-28CRUISE
2019-08-05 03:07:243145183256847422-28CRUISE
2019-08-05 03:08:243155143261847601-29CRUISE
2019-08-05 03:09:243155123266947785-29CRUISE
2019-08-05 03:10:243155103269947965-30CRUISE
2019-08-05 03:11:243165083271748151-30CRUISE
2019-08-05 03:12:243165073274148335-30CRUISE
2019-08-05 03:13:243165083278248527-31CRUISE
2019-08-05 03:14:243185073283348713-32CRUISE
2019-08-05 03:15:243185053288448898-32CRUISE
2019-08-05 03:16:243205023297649081-34CRUISE
2019-08-05 03:17:243205013299949268-34CRUISE
2019-08-05 03:18:243205013301049457-34CRUISE
2019-08-05 03:19:243205023301449643-34CRUISE
2019-08-05 03:20:243205013301649830-34CRUISE
2019-08-05 03:21:243214783315649974-35CRUISE
2019-08-05 03:22:243214793316650163-35CRUISE
2019-08-05 03:23:243214793317650355-35CRUISE
2019-08-05 03:24:243224793317750542-35CRUISE
2019-08-05 03:25:243224793317850733-35CRUISE
2019-08-05 03:26:243224793317950921-35CRUISE
2019-08-05 03:27:243194803304051099-34CRUISE
2019-08-05 03:28:243194803301651282-34CRUISE
2019-08-05 03:29:243154803300251469-34CRUISE
2019-08-05 03:30:243184833296051661-34CRUISE
2019-08-05 03:31:243184823295251844-34CRUISE
2019-08-05 03:32:243184823295152029-34CRUISE
2019-08-05 03:33:243184963295952223-34CRUISE
2019-08-05 03:34:243174983293052409-32CRUISE
2019-08-05 03:35:243155083282852612-30CRUISE
2019-08-05 03:36:243145193272852820-28CRUISE
2019-08-05 03:37:243145253269853021-28CRUISE
2019-08-05 03:38:243155223270253209-28CRUISE
2019-08-05 03:39:243155193272053387-29CRUISE
2019-08-05 03:40:243165163274553565-30CRUISE
2019-08-05 03:41:243165133276153746-30CRUISE
2019-08-05 03:42:243165103278653927-31CRUISE
2019-08-05 03:43:243175053280954100-31CRUISE
2019-08-05 03:44:243174993284454271-32CRUISE
2019-08-05 03:45:243184943287254445-33CRUISE
2019-08-05 03:46:243184893289554619-33CRUISE
2019-08-05 03:47:243184803293454785-34CRUISE
2019-08-05 03:48:242854993288454992-34CRUISE
2019-08-05 03:49:242985023288455209-34CRUISE
2019-08-05 03:50:243165213287855429-34CRUISE
2019-08-05 03:51:243175223287055616-34CRUISE
2019-08-05 03:52:243175313287055805-34CRUISE
2019-08-05 03:53:243175343286855989-34CRUISE
2019-08-05 03:54:243175343286756173-34CRUISE
2019-08-05 03:55:243175343286756357-34CRUISE
2019-08-05 03:56:243175343286756540-34CRUISE
2019-08-05 03:57:243195313287756716-33CRUISE
2019-08-05 03:58:243185293290856896-33CRUISE
2019-08-05 03:59:243185283291957075-32CRUISE
2019-08-05 04:00:243185273293257257-32CRUISE
2019-08-05 04:01:243195263294257439-32CRUISE
2019-08-05 04:02:243195263295257619-32CRUISE
2019-08-05 04:03:243195253296357802-32CRUISE
2019-08-05 04:04:243195253297357986-32CRUISE
2019-08-05 04:05:243195253298358169-32CRUISE
2019-08-05 04:06:243195253299058348-32CRUISE
2019-08-05 04:07:243195303298758536-32CRUISE
2019-08-05 04:08:243195363299758723-32CRUISE
2019-08-05 04:09:243195353300258903-32CRUISE
2019-08-05 04:10:243195353300859087-31CRUISE
2019-08-05 04:11:243195353301259270-31CRUISE
2019-08-05 04:12:243095383291959454-34CRUISE
2019-08-05 04:13:243185513288959662-34CRUISE
2019-08-05 04:14:243175493287859838-34CRUISE
2019-08-05 04:15:243175503286860020-34CRUISE
2019-08-05 04:16:243175493286760201-34CRUISE
2019-08-05 04:17:243165443286360386-34CRUISE
2019-08-05 04:18:243175383286860565-34CRUISE
2019-08-05 04:19:243175373286760744-34CRUISE
2019-08-05 04:20:243165373286760924-34CRUISE
2019-08-05 04:21:243175373286761102-34CRUISE
2019-08-05 04:22:243175373286861283-34CRUISE
2019-08-05 04:23:243165383286861466-34CRUISE
2019-08-05 04:24:243165383286561651-34CRUISE
2019-08-05 04:25:243165383286361833-34CRUISE
2019-08-05 04:26:243165383286462014-34CRUISE
2019-08-05 04:27:243165383286362194-34CRUISE
2019-08-05 04:28:243235353286562369-34CRUISE
2019-08-05 04:29:243175263285362528-34CRUISE
2019-08-05 04:30:243165253285062704-34CRUISE
2019-08-05 04:31:243155203284862875-34CRUISE
2019-08-05 04:32:243165203284763054-34CRUISE
2019-08-05 04:33:243165203284763236-34CRUISE
2019-08-05 04:34:243165243284763420-34CRUISE
2019-08-05 04:35:243165273284763600-34CRUISE
2019-08-05 04:36:243165273284763782-34CRUISE
2019-08-05 04:37:243165273284763962-34CRUISE
2019-08-05 04:38:243165273284664142-34CRUISE
2019-08-05 04:39:243165273284764322-34CRUISE
2019-08-05 04:40:243165273284664501-34CRUISE
2019-08-05 04:41:243165283284764682-34CRUISE
2019-08-05 04:42:243165283284664859-34CRUISE
2019-08-05 04:43:243165283284665040-34CRUISE
2019-08-05 04:44:243165283284665219-34CRUISE
2019-08-05 04:45:243165283284665397-34CRUISE
2019-08-05 04:46:243165283284765579-34CRUISE
2019-08-05 04:47:243165283284665758-34CRUISE
2019-08-05 04:48:243165283284765937-34CRUISE
2019-08-05 04:49:243165283284666116-34CRUISE
2019-08-05 04:50:243165273285066294-34CRUISE
2019-08-05 04:51:243165273285166469-34CRUISE
2019-08-05 04:52:243165273285266646-34CRUISE
2019-08-05 04:53:243165273285266825-34CRUISE
2019-08-05 04:54:243165273285267003-34CRUISE
2019-08-05 04:55:243165273285267181-34CRUISE
2019-08-05 04:56:243165373285467365-34CRUISE
2019-08-05 04:57:243165383285267542-34CRUISE
2019-08-05 04:58:243165383285267722-34CRUISE
2019-08-05 04:59:243165383285267901-34CRUISE
2019-08-05 05:00:243165383285268079-34CRUISE
2019-08-05 05:01:243165383285268258-34CRUISE
2019-08-05 05:02:243165383285268432-34CRUISE
2019-08-05 05:03:243165383285268613-34CRUISE
2019-08-05 05:04:243165383285268790-34CRUISE
2019-08-05 05:05:243165383285268968-34CRUISE
2019-08-05 05:06:243165383285269144-34CRUISE
2019-08-05 05:07:243175443285369334-34CRUISE
2019-08-05 05:08:243175433285469508-34CRUISE
2019-08-05 05:09:243165423285469686-34CRUISE
2019-08-05 05:10:243165433285369864-34CRUISE
2019-08-05 05:11:243165433285470040-34CRUISE
2019-08-05 05:12:243165423285470215-34CRUISE
2019-08-05 05:13:243165423285470394-34CRUISE
2019-08-05 05:14:243165423285370573-34CRUISE
2019-08-05 05:15:243165423285470750-34CRUISE
2019-08-05 05:16:243165423285470928-34CRUISE
2019-08-05 05:17:243165423285471104-34CRUISE
2019-08-05 05:18:243165423285471283-34CRUISE
2019-08-05 05:19:243165423285471456-34CRUISE
2019-08-05 05:20:243165423285371632-34CRUISE
2019-08-05 05:21:243165423285471809-34CRUISE
2019-08-05 05:22:243165423285471983-34CRUISE
2019-08-05 05:23:243165423285472157-34CRUISE
2019-08-05 05:24:243175463285672343-35CRUISE
2019-08-05 05:25:243165453285672519-35CRUISE
2019-08-05 05:26:243165453285772692-35CRUISE
2019-08-05 05:27:243165453285772869-35CRUISE
2019-08-05 05:28:243165453285873045-35CRUISE
2019-08-05 05:29:243165453285873221-35CRUISE
2019-08-05 05:30:243175553285073420-33CRUISE
2019-08-05 05:31:243165543284073591-32CRUISE
2019-08-05 05:32:243155533282973763-31CRUISE
2019-08-05 05:33:243155493281973932-30CRUISE
2019-08-05 05:34:243155473281374101-30CRUISE
2019-08-05 05:35:243155513281274280-30CRUISE
2019-08-05 05:36:243155523281074451-30CRUISE
2019-08-05 05:37:243155523281174626-30CRUISE
2019-08-05 05:38:243155533281274804-30CRUISE
2019-08-05 05:39:243155533281374977-30CRUISE
2019-08-05 05:40:243155533281575150-30CRUISE
2019-08-05 05:41:243185493282675314-34CRUISE
2019-08-05 05:42:243165443283675479-34CRUISE
2019-08-05 05:43:243165433284675649-34CRUISE
2019-08-05 05:44:243165443285175823-34CRUISE
2019-08-05 05:45:243165463285175999-34CRUISE
2019-08-05 05:46:243165483284976176-34CRUISE
2019-08-05 05:47:243165503284176354-33CRUISE
2019-08-05 05:48:243155543283876527-33CRUISE
2019-08-05 05:49:243165543283376699-33CRUISE
2019-08-05 05:50:243155523282876868-32CRUISE
2019-08-05 05:51:243155523282577040-32CRUISE
2019-08-05 05:52:243165523282177210-32CRUISE
2019-08-05 05:53:243155503281077379-32CRUISE
2019-08-05 05:54:243155503281777550-32CRUISE
2019-08-05 05:55:243165503282377723-32CRUISE
2019-08-05 05:56:243165493280577893-31CRUISE
2019-08-05 05:57:243155483281678058-31CRUISE
2019-08-05 05:58:243155503281578235-35CRUISE
2019-08-05 05:59:243165453284378393-35CRUISE
2019-08-05 06:00:243165453285178565-35CRUISE
2019-08-05 06:01:243165453280378739-35CRUISE
2019-08-05 06:02:243165453285678908-35CRUISE
2019-08-05 06:03:243165443283979081-35CRUISE
2019-08-05 06:04:243165433287179252-35CRUISE
2019-08-05 06:05:243165453285179429-35CRUISE
2019-08-05 06:06:243165443285479599-35CRUISE
2019-08-05 06:07:243155383285179772-35CRUISE
2019-08-05 06:08:243165353285179950-35CRUISE
2019-08-05 06:09:243155363285180124-35CRUISE
2019-08-05 06:10:243165363285080298-35CRUISE
2019-08-05 06:11:243165373286380469-35CRUISE
2019-08-05 06:12:243165383286080642-35CRUISE
2019-08-05 06:13:243165383284880812-35CRUISE
2019-08-05 06:14:243165393284480985-34CRUISE
2019-08-05 06:15:243165403284681158-34CRUISE
2019-08-05 06:16:243155263288281300-35CRUISE
2019-08-05 06:17:243175283288881474-35CRUISE
2019-08-05 06:18:243175303290281648-35CRUISE
2019-08-05 06:19:243175323290381819-35CRUISE
2019-08-05 06:20:243175323290481991-35CRUISE
2019-08-05 06:21:243175323290682161-35CRUISE
2019-08-05 06:22:243175323290382333-35CRUISE
2019-08-05 06:23:243175313290382500-35CRUISE
2019-08-05 06:24:243175313290182672-35CRUISE
2019-08-05 06:25:243175323290482844-35CRUISE
2019-08-05 06:26:243175333290583018-35CRUISE
2019-08-05 06:27:243175333290683191-35CRUISE
2019-08-05 06:28:243104993280283306-32CRUISE
2019-08-05 06:29:243155033278383480-31CRUISE
2019-08-05 06:30:243145143277083671-31CRUISE
2019-08-05 06:31:243145153276083843-31CRUISE
2019-08-05 06:32:243145173274984019-31CRUISE
2019-08-05 06:33:243145193273984191-31CRUISE
2019-08-05 06:34:243145183273284358-31CRUISE
2019-08-05 06:35:243145143273384527-31CRUISE
2019-08-05 06:36:243145123273584691-31CRUISE
2019-08-05 06:37:243165093274384855-31CRUISE
2019-08-05 06:38:243145053275285017-31CRUISE
2019-08-05 06:39:243145013276185181-31CRUISE
2019-08-05 06:40:243145033277485352-32CRUISE
2019-08-05 06:41:243155103278285534-32CRUISE
2019-08-05 06:42:243135203277885722-32CRUISE
2019-08-05 06:43:243095323280185917-33CRUISE
2019-08-05 06:44:243165503279886124-33CRUISE
2019-08-05 06:45:243165533283086296-33CRUISE
2019-08-05 06:46:243295453281886451-32CRUISE
2019-08-05 06:47:243155233279886586-32CRUISE
2019-08-05 06:48:243175223278386755-32CRUISE
2019-08-05 06:49:243155093277586896-32CRUISE
2019-08-05 06:50:243155173277587079-32CRUISE
2019-08-05 06:51:243145163277287243-31CRUISE
2019-08-05 06:52:243145153277287412-31CRUISE
2019-08-05 06:53:243145163276687582-31CRUISE
2019-08-05 06:54:243145183276787755-31CRUISE
2019-08-05 06:55:243145193276587925-31CRUISE
2019-08-05 06:56:243155193276688091-31CRUISE
2019-08-05 06:57:243155133276888246-31CRUISE
2019-08-05 06:58:243075173277388420-31CRUISE
2019-08-05 06:59:243145313278188616-31CRUISE
2019-08-05 07:00:243145333278588785-31CRUISE
2019-08-05 07:01:243145323278788952-31CRUISE
2019-08-05 07:02:243145293278789110-31CRUISE
2019-08-05 07:03:243155283279089277-31CRUISE
2019-08-05 07:04:243145263279089441-31CRUISE
2019-08-05 07:05:243155273279089609-31CRUISE
2019-08-05 07:06:243155303279089784-31CRUISE
2019-08-05 07:07:243135303279689949-31CRUISE
2019-08-05 07:08:243155323280790122-31CRUISE
2019-08-05 07:09:243165403281890303-32CRUISE
2019-08-05 07:10:243175463280990482-34CRUISE
2019-08-05 07:11:243295292966890546-27DESCEND
2019-08-05 07:12:243335152653890606-19DESCEND
2019-08-05 07:13:243314902353990667-13DESCEND
2019-08-05 07:14:243334732054290728-7DESCEND
2019-08-05 07:15:243434571754190789-1DESCEND
2019-08-05 07:16:2432139614575908504DESCEND
2019-08-05 07:17:2428334812481909117DESCEND
2019-08-05 07:18:24261309108749097211DESCEND
2019-08-05 07:19:2425429293729103313DESCEND
2019-08-05 07:20:2424827878749109515DESCEND
2019-08-05 07:21:2424326463729115517DESCEND
2019-08-05 07:22:2424325648759121719DESCEND
2019-08-05 07:30:48003283909288CRUISE
2019-08-05 07:31:49003283909288CRUISE
2019-08-05 07:32:52003283909288CRUISE
2019-08-05 07:33:48003283909288CRUISE
2019-08-05 07:34:4825624920929117523DESCEND
2019-08-05 07:35:481791715559125327DESCEND
2019-08-05 07:36:489485229144530LANDED
2019-08-05 07:37:483019229151330LANDED
2019-08-05 07:38:48206229161430TAXI TO THE GATE
2019-08-05 07:39:483526229177030TAXI TO THE GATE